sensor_id;sensor_type;location;lat;lon;timestamp;temperature;humidity
25718;DHT22;13574;52.040;5.692;2023-02-15T00:01:45;7.70;99.90
25718;DHT22;13574;52.040;5.692;2023-02-15T00:04:17;7.90;99.90
25718;DHT22;13574;52.040;5.692;2023-02-15T00:06:43;8.00;99.90
25718;DHT22;13574;52.040;5.692;2023-02-15T00:09:09;8.10;99.90
25718;DHT22;13574;52.040;5.692;2023-02-15T00:11:35;8.20;99.90
25718;DHT22;13574;52.040;5.692;2023-02-15T00:14:22;8.30;99.90
25718;DHT22;13574;52.040;5.692;2023-02-15T00:16:52;8.30;99.90
25718;DHT22;13574;52.040;5.692;2023-02-15T00:19:19;8.30;99.90
25718;DHT22;13574;52.040;5.692;2023-02-15T00:21:46;8.30;99.90
25718;DHT22;13574;52.040;5.692;2023-02-15T00:24:14;8.30;99.90
25718;DHT22;13574;52.040;5.692;2023-02-15T00:26:41;8.40;99.90
25718;DHT22;13574;52.040;5.692;2023-02-15T00:29:09;8.30;99.90
25718;DHT22;13574;52.040;5.692;2023-02-15T00:31:35;8.30;99.90
25718;DHT22;13574;52.040;5.692;2023-02-15T00:34:14;8.20;99.90
25718;DHT22;13574;52.040;5.692;2023-02-15T00:36:40;7.80;99.90
25718;DHT22;13574;52.040;5.692;2023-02-15T00:39:06;7.70;99.90
25718;DHT22;13574;52.040;5.692;2023-02-15T00:41:32;7.60;99.90
25718;DHT22;13574;52.040;5.692;2023-02-15T00:43:58;7.70;99.90
25718;DHT22;13574;52.040;5.692;2023-02-15T00:46:24;7.80;99.90
25718;DHT22;13574;52.040;5.692;2023-02-15T00:48:49;7.70;99.90
25718;DHT22;13574;52.040;5.692;2023-02-15T00:51:15;7.70;99.90
25718;DHT22;13574;52.040;5.692;2023-02-15T00:53:42;7.70;99.90
25718;DHT22;13574;52.040;5.692;2023-02-15T00:56:09;7.70;99.90
25718;DHT22;13574;52.040;5.692;2023-02-15T00:58:36;7.80;99.90
25718;DHT22;13574;52.040;5.692;2023-02-15T01:01:07;7.80;99.90
25718;DHT22;13574;52.040;5.692;2023-02-15T01:03:33;7.60;99.90
25718;DHT22;13574;52.040;5.692;2023-02-15T01:05:59;7.60;99.90
25718;DHT22;13574;52.040;5.692;2023-02-15T01:08:25;7.60;99.90
25718;DHT22;13574;52.040;5.692;2023-02-15T01:10:50;7.70;99.90
25718;DHT22;13574;52.040;5.692;2023-02-15T01:13:17;7.60;99.90
25718;DHT22;13574;52.040;5.692;2023-02-15T01:15:43;7.60;99.90
25718;DHT22;13574;52.040;5.692;2023-02-15T01:18:10;7.50;99.90
25718;DHT22;13574;52.040;5.692;2023-02-15T01:20:37;7.50;99.90
25718;DHT22;13574;52.040;5.692;2023-02-15T01:23:05;7.60;99.90
25718;DHT22;13574;52.040;5.692;2023-02-15T01:25:33;7.60;99.90
25718;DHT22;13574;52.040;5.692;2023-02-15T01:27:59;7.50;99.90
25718;DHT22;13574;52.040;5.692;2023-02-15T01:30:25;7.40;99.90
25718;DHT22;13574;52.040;5.692;2023-02-15T01:32:51;7.40;99.90
25718;DHT22;13574;52.040;5.692;2023-02-15T01:35:17;7.50;99.90
25718;DHT22;13574;52.040;5.692;2023-02-15T01:37:42;7.40;99.90
25718;DHT22;13574;52.040;5.692;2023-02-15T01:40:12;7.40;99.90
25718;DHT22;13574;52.040;5.692;2023-02-15T01:42:38;7.40;99.90
25718;DHT22;13574;52.040;5.692;2023-02-15T01:45:24;7.30;99.90
25718;DHT22;13574;52.040;5.692;2023-02-15T01:47:58;7.10;99.90
25718;DHT22;13574;52.040;5.692;2023-02-15T01:53:03;7.30;99.90
25718;DHT22;13574;52.040;5.692;2023-02-15T01:55:39;7.40;99.90
25718;DHT22;13574;52.040;5.692;2023-02-15T01:58:06;7.40;99.90
25718;DHT22;13574;52.040;5.692;2023-02-15T02:00:33;7.50;99.90
25718;DHT22;13574;52.040;5.692;2023-02-15T02:03:00;7.50;99.90
25718;DHT22;13574;52.040;5.692;2023-02-15T02:05:27;7.40;99.90
25718;DHT22;13574;52.040;5.692;2023-02-15T02:07:56;7.50;99.90
25718;DHT22;13574;52.040;5.692;2023-02-15T02:10:24;7.50;99.90
25718;DHT22;13574;52.040;5.692;2023-02-15T02:12:53;7.50;99.90
25718;DHT22;13574;52.040;5.692;2023-02-15T02:15:47;7.20;99.90
25718;DHT22;13574;52.040;5.692;2023-02-15T02:18:56;7.20;99.90
25718;DHT22;13574;52.040;5.692;2023-02-15T02:21:24;7.30;99.90
25718;DHT22;13574;52.040;5.692;2023-02-15T02:35:25;7.30;99.90
25718;DHT22;13574;52.040;5.692;2023-02-15T02:38:11;7.40;99.90
25718;DHT22;13574;52.040;5.692;2023-02-15T02:43:24;7.30;99.90
25718;DHT22;13574;52.040;5.692;2023-02-15T02:45:59;7.40;99.90
25718;DHT22;13574;52.040;5.692;2023-02-15T02:48:29;7.30;99.90
25718;DHT22;13574;52.040;5.692;2023-02-15T02:50:56;7.40;99.90
25718;DHT22;13574;52.040;5.692;2023-02-15T02:53:21;7.20;99.90
25718;DHT22;13574;52.040;5.692;2023-02-15T02:55:52;7.30;99.90
25718;DHT22;13574;52.040;5.692;2023-02-15T02:58:51;7.40;99.90
25718;DHT22;13574;52.040;5.692;2023-02-15T03:01:28;7.20;99.90
25718;DHT22;13574;52.040;5.692;2023-02-15T03:04:01;7.20;99.90
25718;DHT22;13574;52.040;5.692;2023-02-15T03:06:39;7.30;99.90
25718;DHT22;13574;52.040;5.692;2023-02-15T03:09:27;7.30;99.90
25718;DHT22;13574;52.040;5.692;2023-02-15T03:12:13;7.20;99.90
25718;DHT22;13574;52.040;5.692;2023-02-15T03:14:41;7.30;99.90
25718;DHT22;13574;52.040;5.692;2023-02-15T03:17:09;7.20;99.90
25718;DHT22;13574;52.040;5.692;2023-02-15T03:19:38;7.10;99.90
25718;DHT22;13574;52.040;5.692;2023-02-15T03:22:08;7.00;99.90
25718;DHT22;13574;52.040;5.692;2023-02-15T03:24:54;6.80;99.90
25718;DHT22;13574;52.040;5.692;2023-02-15T03:27:24;6.80;99.90
25718;DHT22;13574;52.040;5.692;2023-02-15T03:29:54;6.70;99.90
25718;DHT22;13574;52.040;5.692;2023-02-15T03:32:21;6.40;99.90
25718;DHT22;13574;52.040;5.692;2023-02-15T03:34:48;6.40;99.90
25718;DHT22;13574;52.040;5.692;2023-02-15T03:37:31;6.20;99.90
25718;DHT22;13574;52.040;5.692;2023-02-15T03:40:18;6.20;99.90
25718;DHT22;13574;52.040;5.692;2023-02-15T03:43:20;6.00;99.90
25718;DHT22;13574;52.040;5.692;2023-02-15T03:45:51;5.80;99.90
25718;DHT22;13574;52.040;5.692;2023-02-15T03:48:32;5.80;99.90
25718;DHT22;13574;52.040;5.692;2023-02-15T03:51:03;6.00;99.90
25718;DHT22;13574;52.040;5.692;2023-02-15T03:53:49;6.00;99.90
25718;DHT22;13574;52.040;5.692;2023-02-15T03:56:15;5.80;99.90
25718;DHT22;13574;52.040;5.692;2023-02-15T03:58:40;6.00;99.90
25718;DHT22;13574;52.040;5.692;2023-02-15T04:01:42;5.90;99.90
25718;DHT22;13574;52.040;5.692;2023-02-15T04:04:29;6.00;99.90
25718;DHT22;13574;52.040;5.692;2023-02-15T04:06:56;6.00;99.90
25718;DHT22;13574;52.040;5.692;2023-02-15T04:09:21;6.00;99.90
25718;DHT22;13574;52.040;5.692;2023-02-15T04:12:06;6.10;99.90
25718;DHT22;13574;52.040;5.692;2023-02-15T04:14:32;6.30;99.90
25718;DHT22;13574;52.040;5.692;2023-02-15T04:17:16;6.20;99.90
25718;DHT22;13574;52.040;5.692;2023-02-15T04:19:41;6.20;99.90
25718;DHT22;13574;52.040;5.692;2023-02-15T04:22:25;6.30;99.90
25718;DHT22;13574;52.040;5.692;2023-02-15T04:25:09;6.40;99.90
25718;DHT22;13574;52.040;5.692;2023-02-15T04:27:40;6.30;99.90
25718;DHT22;13574;52.040;5.692;2023-02-15T04:30:07;6.50;99.90
25718;DHT22;13574;52.040;5.692;2023-02-15T04:32:33;6.50;99.90
25718;DHT22;13574;52.040;5.692;2023-02-15T04:34:59;6.50;99.90
25718;DHT22;13574;52.040;5.692;2023-02-15T04:37:25;6.60;99.90
25718;DHT22;13574;52.040;5.692;2023-02-15T04:39:51;6.60;99.90
25718;DHT22;13574;52.040;5.692;2023-02-15T04:42:16;6.80;99.90
25718;DHT22;13574;52.040;5.692;2023-02-15T04:44:42;6.80;99.90
25718;DHT22;13574;52.040;5.692;2023-02-15T04:47:08;6.70;99.90
25718;DHT22;13574;52.040;5.692;2023-02-15T04:49:34;6.70;99.90
25718;DHT22;13574;52.040;5.692;2023-02-15T04:51:59;6.70;99.90
25718;DHT22;13574;52.040;5.692;2023-02-15T04:54:25;6.50;99.90
25718;DHT22;13574;52.040;5.692;2023-02-15T04:56:51;6.50;99.90
25718;DHT22;13574;52.040;5.692;2023-02-15T04:59:17;6.50;99.90
25718;DHT22;13574;52.040;5.692;2023-02-15T05:01:42;6.50;99.90
25718;DHT22;13574;52.040;5.692;2023-02-15T05:04:08;6.60;99.90
25718;DHT22;13574;52.040;5.692;2023-02-15T05:06:34;6.50;99.90
25718;DHT22;13574;52.040;5.692;2023-02-15T05:09:00;6.60;99.90
25718;DHT22;13574;52.040;5.692;2023-02-15T05:11:26;6.50;99.90
25718;DHT22;13574;52.040;5.692;2023-02-15T05:13:52;6.60;99.90
25718;DHT22;13574;52.040;5.692;2023-02-15T05:16:17;6.50;99.90
25718;DHT22;13574;52.040;5.692;2023-02-15T05:18:43;6.50;99.90
25718;DHT22;13574;52.040;5.692;2023-02-15T05:21:09;6.60;99.90
25718;DHT22;13574;52.040;5.692;2023-02-15T05:23:35;6.60;99.90
25718;DHT22;13574;52.040;5.692;2023-02-15T05:26:00;6.60;99.90
25718;DHT22;13574;52.040;5.692;2023-02-15T05:28:44;6.50;99.90
25718;DHT22;13574;52.040;5.692;2023-02-15T05:31:12;6.60;99.90
25718;DHT22;13574;52.040;5.692;2023-02-15T05:33:40;6.60;99.90
25718;DHT22;13574;52.040;5.692;2023-02-15T05:36:06;6.60;99.90
25718;DHT22;13574;52.040;5.692;2023-02-15T05:38:32;6.70;99.90
25718;DHT22;13574;52.040;5.692;2023-02-15T05:40:59;6.80;99.90
25718;DHT22;13574;52.040;5.692;2023-02-15T05:43:25;6.90;99.90
25718;DHT22;13574;52.040;5.692;2023-02-15T05:45:52;6.90;99.90
25718;DHT22;13574;52.040;5.692;2023-02-15T05:48:19;6.90;99.90
25718;DHT22;13574;52.040;5.692;2023-02-15T05:50:45;6.90;99.90
25718;DHT22;13574;52.040;5.692;2023-02-15T05:53:11;6.90;99.90
25718;DHT22;13574;52.040;5.692;2023-02-15T05:55:38;7.00;99.90
25718;DHT22;13574;52.040;5.692;2023-02-15T05:58:05;7.10;99.90
25718;DHT22;13574;52.040;5.692;2023-02-15T06:00:30;7.00;99.90
25718;DHT22;13574;52.040;5.692;2023-02-15T06:02:56;7.20;99.90
25718;DHT22;13574;52.040;5.692;2023-02-15T06:05:21;7.00;99.90
25718;DHT22;13574;52.040;5.692;2023-02-15T06:07:47;7.10;99.90
25718;DHT22;13574;52.040;5.692;2023-02-15T06:10:15;7.10;99.90
25718;DHT22;13574;52.040;5.692;2023-02-15T06:12:41;7.10;99.90
25718;DHT22;13574;52.040;5.692;2023-02-15T06:15:07;7.00;99.90
25718;DHT22;13574;52.040;5.692;2023-02-15T06:17:32;7.10;99.90
25718;DHT22;13574;52.040;5.692;2023-02-15T06:19:58;7.10;99.90
25718;DHT22;13574;52.040;5.692;2023-02-15T06:22:24;7.00;99.90
25718;DHT22;13574;52.040;5.692;2023-02-15T06:24:52;7.10;99.90
25718;DHT22;13574;52.040;5.692;2023-02-15T06:27:17;7.10;99.90
25718;DHT22;13574;52.040;5.692;2023-02-15T06:29:46;7.20;99.90
25718;DHT22;13574;52.040;5.692;2023-02-15T06:32:14;7.00;99.90
25718;DHT22;13574;52.040;5.692;2023-02-15T06:34:46;6.90;99.90
25718;DHT22;13574;52.040;5.692;2023-02-15T06:37:20;6.80;99.90
25718;DHT22;13574;52.040;5.692;2023-02-15T06:39:46;6.90;99.90
25718;DHT22;13574;52.040;5.692;2023-02-15T06:42:14;6.80;99.90
25718;DHT22;13574;52.040;5.692;2023-02-15T06:44:39;6.80;99.90
25718;DHT22;13574;52.040;5.692;2023-02-15T06:47:05;6.80;99.90
25718;DHT22;13574;52.040;5.692;2023-02-15T06:49:31;6.80;99.90
25718;DHT22;13574;52.040;5.692;2023-02-15T06:51:58;6.90;99.90
25718;DHT22;13574;52.040;5.692;2023-02-15T06:54:24;6.80;99.90
25718;DHT22;13574;52.040;5.692;2023-02-15T06:56:50;6.70;99.90
25718;DHT22;13574;52.040;5.692;2023-02-15T06:59:15;6.80;99.90
25718;DHT22;13574;52.040;5.692;2023-02-15T07:01:41;6.80;99.90
25718;DHT22;13574;52.040;5.692;2023-02-15T07:04:07;6.80;99.90
25718;DHT22;13574;52.040;5.692;2023-02-15T07:06:33;6.80;99.90
25718;DHT22;13574;52.040;5.692;2023-02-15T07:08:59;6.70;99.90
25718;DHT22;13574;52.040;5.692;2023-02-15T07:11:25;6.90;99.90
25718;DHT22;13574;52.040;5.692;2023-02-15T07:14:17;7.00;99.90
25718;DHT22;13574;52.040;5.692;2023-02-15T07:16:42;7.00;99.90
25718;DHT22;13574;52.040;5.692;2023-02-15T07:19:08;7.20;99.90
25718;DHT22;13574;52.040;5.692;2023-02-15T07:21:35;7.20;99.90
25718;DHT22;13574;52.040;5.692;2023-02-15T07:24:00;7.10;99.90
25718;DHT22;13574;52.040;5.692;2023-02-15T07:26:26;7.10;99.90
25718;DHT22;13574;52.040;5.692;2023-02-15T07:28:52;7.20;99.90
25718;DHT22;13574;52.040;5.692;2023-02-15T07:31:17;7.20;99.90
25718;DHT22;13574;52.040;5.692;2023-02-15T07:33:43;7.30;99.90
25718;DHT22;13574;52.040;5.692;2023-02-15T07:36:09;7.40;99.90
25718;DHT22;13574;52.040;5.692;2023-02-15T07:38:39;7.40;99.90
25718;DHT22;13574;52.040;5.692;2023-02-15T07:41:07;7.30;99.90
25718;DHT22;13574;52.040;5.692;2023-02-15T07:43:35;7.30;99.90
25718;DHT22;13574;52.040;5.692;2023-02-15T07:46:01;7.40;99.90
25718;DHT22;13574;52.040;5.692;2023-02-15T07:48:27;7.40;99.90
25718;DHT22;13574;52.040;5.692;2023-02-15T07:50:53;7.60;99.90
25718;DHT22;13574;52.040;5.692;2023-02-15T07:53:19;7.70;99.90
25718;DHT22;13574;52.040;5.692;2023-02-15T07:55:44;7.80;99.90
25718;DHT22;13574;52.040;5.692;2023-02-15T07:58:10;7.90;99.90
25718;DHT22;13574;52.040;5.692;2023-02-15T08:00:36;7.90;99.90
25718;DHT22;13574;52.040;5.692;2023-02-15T08:03:25;7.90;99.90
25718;DHT22;13574;52.040;5.692;2023-02-15T08:05:58;8.00;99.90
25718;DHT22;13574;52.040;5.692;2023-02-15T08:08:25;8.10;99.90
25718;DHT22;13574;52.040;5.692;2023-02-15T08:14:17;8.30;99.90
25718;DHT22;13574;52.040;5.692;2023-02-15T08:16:48;8.50;99.90
25718;DHT22;13574;52.040;5.692;2023-02-15T08:21:42;8.30;99.90
25718;DHT22;13574;52.040;5.692;2023-02-15T08:24:10;8.40;99.90
25718;DHT22;13574;52.040;5.692;2023-02-15T08:26:37;8.60;99.90
25718;DHT22;13574;52.040;5.692;2023-02-15T08:29:04;8.60;99.90
25718;DHT22;13574;52.040;5.692;2023-02-15T08:31:30;8.80;99.90
25718;DHT22;13574;52.040;5.692;2023-02-15T08:33:57;8.90;99.90
25718;DHT22;13574;52.040;5.692;2023-02-15T08:36:25;8.90;99.90
25718;DHT22;13574;52.040;5.692;2023-02-15T08:38:51;9.00;99.90
25718;DHT22;13574;52.040;5.692;2023-02-15T08:41:26;9.00;99.90
25718;DHT22;13574;52.040;5.692;2023-02-15T08:43:53;9.10;99.90
25718;DHT22;13574;52.040;5.692;2023-02-15T08:46:21;9.10;99.90
25718;DHT22;13574;52.040;5.692;2023-02-15T08:48:47;9.20;99.90
25718;DHT22;13574;52.040;5.692;2023-02-15T08:51:18;9.30;99.90
25718;DHT22;13574;52.040;5.692;2023-02-15T08:53:47;9.20;99.90
25718;DHT22;13574;52.040;5.692;2023-02-15T08:56:17;9.50;99.90
25718;DHT22;13574;52.040;5.692;2023-02-15T08:58:43;9.60;99.90
25718;DHT22;13574;52.040;5.692;2023-02-15T09:01:15;9.70;99.90
25718;DHT22;13574;52.040;5.692;2023-02-15T09:03:47;9.90;99.90
25718;DHT22;13574;52.040;5.692;2023-02-15T09:06:14;10.00;99.90
25718;DHT22;13574;52.040;5.692;2023-02-15T09:08:39;10.20;99.90
25718;DHT22;13574;52.040;5.692;2023-02-15T09:11:08;10.30;99.90
25718;DHT22;13574;52.040;5.692;2023-02-15T09:13:34;10.30;99.90
25718;DHT22;13574;52.040;5.692;2023-02-15T09:16:07;10.40;99.90
25718;DHT22;13574;52.040;5.692;2023-02-15T09:18:37;10.50;99.90
25718;DHT22;13574;52.040;5.692;2023-02-15T09:21:09;10.70;99.90
25718;DHT22;13574;52.040;5.692;2023-02-15T09:23:36;10.70;99.90
25718;DHT22;13574;52.040;5.692;2023-02-15T09:26:07;10.80;99.90
25718;DHT22;13574;52.040;5.692;2023-02-15T09:28:34;10.80;99.90
25718;DHT22;13574;52.040;5.692;2023-02-15T09:31:18;11.00;99.90
25718;DHT22;13574;52.040;5.692;2023-02-15T09:33:45;11.10;99.90
25718;DHT22;13574;52.040;5.692;2023-02-15T09:38:40;10.90;99.90
25718;DHT22;13574;52.040;5.692;2023-02-15T09:43:43;11.10;99.90
25718;DHT22;13574;52.040;5.692;2023-02-15T09:48:53;11.00;99.90
25718;DHT22;13574;52.040;5.692;2023-02-15T09:54:37;11.10;99.90
25718;DHT22;13574;52.040;5.692;2023-02-15T10:02:35;11.40;99.90
25718;DHT22;13574;52.040;5.692;2023-02-15T10:05:11;11.30;99.90
25718;DHT22;13574;52.040;5.692;2023-02-15T10:13:18;11.40;99.90
25718;DHT22;13574;52.040;5.692;2023-02-15T10:16:11;11.60;99.90
25718;DHT22;13574;52.040;5.692;2023-02-15T10:21:40;11.60;99.90
25718;DHT22;13574;52.040;5.692;2023-02-15T10:27:01;11.70;99.90
25718;DHT22;13574;52.040;5.692;2023-02-15T10:29:37;11.60;99.90
25718;DHT22;13574;52.040;5.692;2023-02-15T10:32:24;11.60;99.90
25718;DHT22;13574;52.040;5.692;2023-02-15T10:38:06;11.80;99.90
25718;DHT22;13574;52.040;5.692;2023-02-15T10:40:51;11.80;99.90
25718;DHT22;13574;52.040;5.692;2023-02-15T11:06:05;12.30;99.90
25718;DHT22;13574;52.040;5.692;2023-02-15T11:08:35;12.30;99.90
25718;DHT22;13574;52.040;5.692;2023-02-15T11:11:15;12.40;99.90
25718;DHT22;13574;52.040;5.692;2023-02-15T11:13:49;12.60;99.90
25718;DHT22;13574;52.040;5.692;2023-02-15T11:16:16;12.50;99.90
25718;DHT22;13574;52.040;5.692;2023-02-15T11:18:53;12.40;99.90
25718;DHT22;13574;52.040;5.692;2023-02-15T11:21:40;12.60;99.90
25718;DHT22;13574;52.040;5.692;2023-02-15T11:24:13;12.70;99.90
25718;DHT22;13574;52.040;5.692;2023-02-15T11:26:47;12.80;99.90
25718;DHT22;13574;52.040;5.692;2023-02-15T11:29:26;12.80;99.90
25718;DHT22;13574;52.040;5.692;2023-02-15T11:31:59;12.80;99.90
25718;DHT22;13574;52.040;5.692;2023-02-15T11:34:45;12.80;99.90
25718;DHT22;13574;52.040;5.692;2023-02-15T11:37:18;12.80;99.90
25718;DHT22;13574;52.040;5.692;2023-02-15T11:39:44;12.90;99.90
25718;DHT22;13574;52.040;5.692;2023-02-15T11:42:19;13.00;99.90
25718;DHT22;13574;52.040;5.692;2023-02-15T11:45:22;13.10;99.90
25718;DHT22;13574;52.040;5.692;2023-02-15T11:47:51;13.30;99.90
25718;DHT22;13574;52.040;5.692;2023-02-15T11:50:28;13.40;99.90
25718;DHT22;13574;52.040;5.692;2023-02-15T11:53:09;13.50;99.90
25718;DHT22;13574;52.040;5.692;2023-02-15T11:55:37;13.60;99.90
25718;DHT22;13574;52.040;5.692;2023-02-15T11:58:25;13.70;99.90
25718;DHT22;13574;52.040;5.692;2023-02-15T12:00:58;14.00;99.90
25718;DHT22;13574;52.040;5.692;2023-02-15T12:03:46;14.00;99.90
25718;DHT22;13574;52.040;5.692;2023-02-15T12:06:34;14.10;99.90
25718;DHT22;13574;52.040;5.692;2023-02-15T12:09:12;14.10;99.90
25718;DHT22;13574;52.040;5.692;2023-02-15T12:11:40;14.20;99.90
25718;DHT22;13574;52.040;5.692;2023-02-15T12:14:09;14.40;99.90
25718;DHT22;13574;52.040;5.692;2023-02-15T12:16:51;14.40;99.90
25718;DHT22;13574;52.040;5.692;2023-02-15T12:19:37;14.60;99.90
25718;DHT22;13574;52.040;5.692;2023-02-15T12:22:06;14.70;99.90
25718;DHT22;13574;52.040;5.692;2023-02-15T12:24:46;14.80;99.90
25718;DHT22;13574;52.040;5.692;2023-02-15T12:27:16;14.80;99.90
25718;DHT22;13574;52.040;5.692;2023-02-15T12:29:46;14.80;99.90
25718;DHT22;13574;52.040;5.692;2023-02-15T12:32:28;14.80;99.90
25718;DHT22;13574;52.040;5.692;2023-02-15T12:35:01;14.80;99.90
25718;DHT22;13574;52.040;5.692;2023-02-15T12:37:29;14.90;99.90
25718;DHT22;13574;52.040;5.692;2023-02-15T12:40:10;14.70;99.90
25718;DHT22;13574;52.040;5.692;2023-02-15T12:42:44;14.70;99.90
25718;DHT22;13574;52.040;5.692;2023-02-15T12:45:30;14.80;99.90
25718;DHT22;13574;52.040;5.692;2023-02-15T12:48:26;14.90;99.90
25718;DHT22;13574;52.040;5.692;2023-02-15T12:50:52;14.90;99.90
25718;DHT22;13574;52.040;5.692;2023-02-15T12:53:34;14.90;99.90
25718;DHT22;13574;52.040;5.692;2023-02-15T12:56:03;14.90;99.90
25718;DHT22;13574;52.040;5.692;2023-02-15T12:58:34;14.80;99.90
25718;DHT22;13574;52.040;5.692;2023-02-15T13:01:10;14.90;99.90
25718;DHT22;13574;52.040;5.692;2023-02-15T13:04:01;14.90;99.90
25718;DHT22;13574;52.040;5.692;2023-02-15T13:06:31;14.80;99.90
25718;DHT22;13574;52.040;5.692;2023-02-15T13:09:15;14.60;99.90
25718;DHT22;13574;52.040;5.692;2023-02-15T13:11:43;14.70;99.90
25718;DHT22;13574;52.040;5.692;2023-02-15T13:14:25;14.80;99.90
25718;DHT22;13574;52.040;5.692;2023-02-15T13:16:57;14.90;99.90
25718;DHT22;13574;52.040;5.692;2023-02-15T13:19:36;14.80;99.90
25718;DHT22;13574;52.040;5.692;2023-02-15T13:22:06;14.70;99.90
25718;DHT22;13574;52.040;5.692;2023-02-15T13:24:40;14.70;99.90
25718;DHT22;13574;52.040;5.692;2023-02-15T13:27:15;14.80;99.90
25718;DHT22;13574;52.040;5.692;2023-02-15T13:29:48;14.80;99.90
25718;DHT22;13574;52.040;5.692;2023-02-15T13:32:34;14.80;99.90
25718;DHT22;13574;52.040;5.692;2023-02-15T13:35:04;14.70;99.90
25718;DHT22;13574;52.040;5.692;2023-02-15T13:40:50;14.90;99.90
25718;DHT22;13574;52.040;5.692;2023-02-15T14:00:13;15.50;99.90
25718;DHT22;13574;52.040;5.692;2023-02-15T14:16:24;16.00;99.90
25718;DHT22;13574;52.040;5.692;2023-02-15T14:21:59;16.00;99.90
25718;DHT22;13574;52.040;5.692;2023-02-15T14:27:17;16.00;99.90
25718;DHT22;13574;52.040;5.692;2023-02-15T14:35:00;15.70;99.90
25718;DHT22;13574;52.040;5.692;2023-02-15T14:40:59;15.70;99.90
25718;DHT22;13574;52.040;5.692;2023-02-15T14:43:56;15.60;99.90
25718;DHT22;13574;52.040;5.692;2023-02-15T14:49:15;15.70;99.90
25718;DHT22;13574;52.040;5.692;2023-02-15T14:54:09;15.60;99.90
25718;DHT22;13574;52.040;5.692;2023-02-15T14:56:36;15.60;99.90
25718;DHT22;13574;52.040;5.692;2023-02-15T14:59:20;15.60;99.90
25718;DHT22;13574;52.040;5.692;2023-02-15T15:01:58;15.70;99.90
25718;DHT22;13574;52.040;5.692;2023-02-15T15:04:33;15.70;99.90
25718;DHT22;13574;52.040;5.692;2023-02-15T15:07:20;15.70;99.90
25718;DHT22;13574;52.040;5.692;2023-02-15T15:10:02;15.60;99.90
25718;DHT22;13574;52.040;5.692;2023-02-15T15:15:01;15.60;99.90
25718;DHT22;13574;52.040;5.692;2023-02-15T15:20:14;15.50;99.90
25718;DHT22;13574;52.040;5.692;2023-02-15T15:25:56;15.40;99.90
25718;DHT22;13574;52.040;5.692;2023-02-15T15:31:10;15.30;99.90
25718;DHT22;13574;52.040;5.692;2023-02-15T15:39:26;15.10;99.90
25718;DHT22;13574;52.040;5.692;2023-02-15T15:45:17;14.90;99.90
25718;DHT22;13574;52.040;5.692;2023-02-15T15:50:25;14.90;99.90
25718;DHT22;13574;52.040;5.692;2023-02-15T15:52:58;14.90;99.90
25718;DHT22;13574;52.040;5.692;2023-02-15T15:55:26;14.80;99.90
25718;DHT22;13574;52.040;5.692;2023-02-15T15:58:05;14.80;99.90
25718;DHT22;13574;52.040;5.692;2023-02-15T16:00:46;14.70;99.90
25718;DHT22;13574;52.040;5.692;2023-02-15T16:03:24;14.70;99.90
25718;DHT22;13574;52.040;5.692;2023-02-15T16:05:50;14.60;99.90
25718;DHT22;13574;52.040;5.692;2023-02-15T16:10:58;14.50;99.90
25718;DHT22;13574;52.040;5.692;2023-02-15T16:13:25;14.40;99.90
25718;DHT22;13574;52.040;5.692;2023-02-15T16:15:53;14.40;99.90
25718;DHT22;13574;52.040;5.692;2023-02-15T16:18:23;14.40;99.90
25718;DHT22;13574;52.040;5.692;2023-02-15T16:20:56;14.30;99.90
25718;DHT22;13574;52.040;5.692;2023-02-15T16:29:16;14.20;99.90
25718;DHT22;13574;52.040;5.692;2023-02-15T16:31:42;14.20;99.90
25718;DHT22;13574;52.040;5.692;2023-02-15T16:34:19;14.10;99.90
25718;DHT22;13574;52.040;5.692;2023-02-15T16:36:45;14.00;99.90
25718;DHT22;13574;52.040;5.692;2023-02-15T16:39:19;14.00;99.90
25718;DHT22;13574;52.040;5.692;2023-02-15T16:41:50;13.90;99.90
25718;DHT22;13574;52.040;5.692;2023-02-15T16:44:20;13.90;99.90
25718;DHT22;13574;52.040;5.692;2023-02-15T16:46:49;13.80;99.90
25718;DHT22;13574;52.040;5.692;2023-02-15T16:49:24;13.80;99.90
25718;DHT22;13574;52.040;5.692;2023-02-15T16:51:56;13.80;99.90
25718;DHT22;13574;52.040;5.692;2023-02-15T16:54:23;13.60;99.90
25718;DHT22;13574;52.040;5.692;2023-02-15T16:56:55;13.60;99.90
25718;DHT22;13574;52.040;5.692;2023-02-15T16:59:39;13.60;99.90
25718;DHT22;13574;52.040;5.692;2023-02-15T17:02:20;13.40;99.90
25718;DHT22;13574;52.040;5.692;2023-02-15T17:07:27;13.40;99.90
25718;DHT22;13574;52.040;5.692;2023-02-15T17:09:56;13.30;99.90
25718;DHT22;13574;52.040;5.692;2023-02-15T17:12:51;13.30;99.90
25718;DHT22;13574;52.040;5.692;2023-02-15T17:15:33;13.30;99.90
25718;DHT22;13574;52.040;5.692;2023-02-15T17:18:04;13.20;99.90
25718;DHT22;13574;52.040;5.692;2023-02-15T17:20:31;13.10;99.90
25718;DHT22;13574;52.040;5.692;2023-02-15T17:22:57;13.00;99.90
25718;DHT22;13574;52.040;5.692;2023-02-15T17:25:35;13.10;99.90
25718;DHT22;13574;52.040;5.692;2023-02-15T17:28:02;13.00;99.90
25718;DHT22;13574;52.040;5.692;2023-02-15T17:30:33;13.00;99.90
25718;DHT22;13574;52.040;5.692;2023-02-15T17:33:02;13.00;99.90
25718;DHT22;13574;52.040;5.692;2023-02-15T17:35:30;13.00;99.90
25718;DHT22;13574;52.040;5.692;2023-02-15T17:38:18;12.90;99.90
25718;DHT22;13574;52.040;5.692;2023-02-15T17:40:45;12.90;99.90
25718;DHT22;13574;52.040;5.692;2023-02-15T17:43:10;12.80;99.90
25718;DHT22;13574;52.040;5.692;2023-02-15T17:45:42;12.70;99.90
25718;DHT22;13574;52.040;5.692;2023-02-15T17:48:25;12.60;99.90
25718;DHT22;13574;52.040;5.692;2023-02-15T17:50:56;12.60;99.90
25718;DHT22;13574;52.040;5.692;2023-02-15T17:53:23;12.50;99.90
25718;DHT22;13574;52.040;5.692;2023-02-15T17:55:52;12.60;99.90
25718;DHT22;13574;52.040;5.692;2023-02-15T17:58:19;12.60;99.90
25718;DHT22;13574;52.040;5.692;2023-02-15T18:00:56;12.60;99.90
25718;DHT22;13574;52.040;5.692;2023-02-15T18:03:51;12.50;99.90
25718;DHT22;13574;52.040;5.692;2023-02-15T18:06:37;12.40;99.90
25718;DHT22;13574;52.040;5.692;2023-02-15T18:09:23;12.30;99.90
25718;DHT22;13574;52.040;5.692;2023-02-15T18:12:23;12.30;99.90
25718;DHT22;13574;52.040;5.692;2023-02-15T18:14:49;12.40;99.90
25718;DHT22;13574;52.040;5.692;2023-02-15T18:17:16;12.30;99.90
25718;DHT22;13574;52.040;5.692;2023-02-15T18:19:43;12.40;99.90
25718;DHT22;13574;52.040;5.692;2023-02-15T18:22:17;12.40;99.90
25718;DHT22;13574;52.040;5.692;2023-02-15T18:24:44;12.40;99.90
25718;DHT22;13574;52.040;5.692;2023-02-15T18:27:11;12.50;99.90
25718;DHT22;13574;52.040;5.692;2023-02-15T18:29:37;12.40;99.90
25718;DHT22;13574;52.040;5.692;2023-02-15T18:32:06;12.40;99.90
25718;DHT22;13574;52.040;5.692;2023-02-15T18:34:39;12.50;99.90
25718;DHT22;13574;52.040;5.692;2023-02-15T18:37:11;12.40;99.90
25718;DHT22;13574;52.040;5.692;2023-02-15T18:39:45;12.40;99.90
25718;DHT22;13574;52.040;5.692;2023-02-15T18:42:32;12.30;99.90
25718;DHT22;13574;52.040;5.692;2023-02-15T18:45:20;12.30;99.90
25718;DHT22;13574;52.040;5.692;2023-02-15T18:47:47;12.20;99.90
25718;DHT22;13574;52.040;5.692;2023-02-15T18:50:15;12.20;99.90
25718;DHT22;13574;52.040;5.692;2023-02-15T18:52:42;12.20;99.90